Aviation Digital Data Service (ADDS)

Output produced by METARs form (2017 UTC 20 August 2019)
found at http://www.aviationweather.gov/metar/data/
 
Forecast for: ZBSJ (ZHENGDING , CN)
Text: TAF ZBSJ 201353Z 2018/2118 35003MPS 3000 BR NSC TX28/2107Z TN20/2021Z
Forecast period: 1800 to 2000 UTC 20 August 2019
Forecast type: FROM: standard forecast or significant change
Winds: from the N (350 degrees) at 7 MPH (6 knots; 3.1 m/s)
Visibility: 1.86 miles (2.99 km)
Ceiling: unknown
Clouds: missing
Weather: BR  (mist)
Text: BECMG 2020/2021 1200 BR
Forecast period: 2000 UTC 20 August 2019 to 0100 UTC 21 August 2019
Forecast type: BECOMING: Conditions expected to become as follows by 2100 UTC 20 August 2019
Winds: from the N (350 degrees) at 7 MPH (6 knots; 3.1 m/s)
Visibility: 0.75 miles (1.21 km)
Ceiling: unknown
Clouds: missing
Weather: BR  (mist)
Text: BECMG 2101/2102 3000 BR
Forecast period: 0100 to 1800 UTC 21 August 2019
Forecast type: BECOMING: Conditions expected to become as follows by 0200 UTC 21 August 2019
Winds: from the N (350 degrees) at 7 MPH (6 knots; 3.1 m/s)
Visibility: 1.86 miles (2.99 km)
Ceiling: unknown
Clouds: missing
Weather: BR  (mist)